createdAt,value
2023-05-10T00:02:02.100Z,98624.84
2023-05-10T00:04:28.975Z,98620.17
2023-05-10T00:06:55.896Z,98620.41
2023-05-10T00:09:22.500Z,98618.25
2023-05-10T00:11:49.608Z,98614.67
2023-05-10T00:14:16.209Z,98614.63
2023-05-10T00:16:42.904Z,98613.87
2023-05-10T00:19:09.870Z,98609.43
2023-05-10T00:21:36.516Z,98610.64
2023-05-10T00:24:03.214Z,98608.96
2023-05-10T00:26:29.862Z,98609.23
2023-05-10T00:28:56.623Z,98604.48
2023-05-10T00:31:23.691Z,98605.06
2023-05-10T00:33:50.424Z,98603.00
2023-05-10T00:36:16.994Z,98605.35
2023-05-10T00:38:43.626Z,98604.03
2023-05-10T00:41:10.642Z,98604.47
2023-05-10T00:43:37.269Z,98603.70
2023-05-10T00:46:04.498Z,98603.06
2023-05-10T00:48:31.173Z,98604.77
2023-05-10T00:50:57.854Z,98601.92
2023-05-10T00:53:25.625Z,98602.30
2023-05-10T00:55:52.617Z,98598.11
2023-05-10T00:58:19.649Z,98599.08
2023-05-10T01:00:47.540Z,98595.90
2023-05-10T01:03:14.278Z,98599.04
2023-05-10T01:05:41.097Z,98600.80
2023-05-10T01:08:09.671Z,98595.75
2023-05-10T01:10:36.472Z,98593.25
2023-05-10T01:13:04.281Z,98590.13
2023-05-10T01:15:32.122Z,98594.50
2023-05-10T01:17:59.386Z,98587.86
2023-05-10T01:20:26.427Z,98586.02
2023-05-10T01:23:06.997Z,98588.52
2023-05-10T01:25:47.490Z,98585.70
2023-05-10T01:28:28.154Z,98583.59
2023-05-10T01:30:57.590Z,98587.04
2023-05-10T01:33:38.208Z,98582.54
2023-05-10T01:36:09.966Z,98580.80
2023-05-10T01:38:47.340Z,98580.75
2023-05-10T01:41:20.162Z,98577.05
2023-05-10T01:43:46.733Z,98578.48
2023-05-10T01:46:19.149Z,98573.92
2023-05-10T01:48:50.189Z,98569.99
2023-05-10T01:51:18.656Z,98572.54
2023-05-10T01:53:47.292Z,98571.38
2023-05-10T01:56:14.933Z,98566.81
2023-05-10T01:58:43.798Z,98567.50
2023-05-10T02:01:11.314Z,98565.59
2023-05-10T02:03:39.728Z,98562.51
2023-05-10T02:06:07.009Z,98563.11
2023-05-10T02:08:36.221Z,98559.46
2023-05-10T02:11:03.439Z,98556.38
2023-05-10T02:13:31.302Z,98558.82
2023-05-10T02:15:58.282Z,98552.73
2023-05-10T02:18:27.547Z,98548.75
2023-05-10T02:20:55.064Z,98551.95
2023-05-10T02:23:22.736Z,98547.39
2023-05-10T02:25:50.568Z,98546.65
2023-05-10T02:28:18.280Z,98543.89
2023-05-10T02:30:45.414Z,98546.54
2023-05-10T02:33:12.552Z,98547.40
2023-05-10T02:35:39.464Z,98545.60
2023-05-10T02:38:07.671Z,98545.23
2023-05-10T02:40:35.088Z,98545.48
2023-05-10T02:43:03.089Z,98541.45
2023-05-10T02:45:31.490Z,98542.04
2023-05-10T02:47:58.986Z,98539.98
2023-05-10T02:50:28.532Z,98540.52
2023-05-10T02:52:57.515Z,98542.47
2023-05-10T02:55:27.881Z,98537.64
2023-05-10T02:57:57.950Z,98542.26
2023-05-10T03:00:25.715Z,98540.98
2023-05-10T03:02:52.477Z,98541.03
2023-05-10T03:05:20.098Z,98540.52
2023-05-10T03:07:47.113Z,98542.89
2023-05-10T03:10:14.239Z,98542.21
2023-05-10T03:12:50.359Z,98539.39
2023-05-10T03:15:17.002Z,98542.20
2023-05-10T03:17:57.619Z,98537.96
2023-05-10T03:20:29.793Z,98538.70
2023-05-10T03:23:06.310Z,98540.51
2023-05-10T03:25:33.480Z,98542.67
2023-05-10T03:28:02.228Z,98545.90
2023-05-10T03:30:29.283Z,98540.38
2023-05-10T03:32:56.158Z,98539.15
2023-05-10T03:35:22.850Z,98535.95
2023-05-10T03:37:49.520Z,98533.02
2023-05-10T03:40:16.922Z,98536.23
2023-05-10T03:42:43.780Z,98537.02
2023-05-10T03:45:10.768Z,98538.16
2023-05-10T03:47:37.475Z,98533.34
2023-05-10T03:50:04.252Z,98533.27
2023-05-10T03:52:30.954Z,98533.09
2023-05-10T03:54:57.685Z,98533.18
2023-05-10T03:57:24.293Z,98531.89
2023-05-10T03:59:51.220Z,98530.11
2023-05-10T04:02:17.894Z,98533.90
2023-05-10T04:04:44.537Z,98533.91
2023-05-10T04:07:11.579Z,98532.37
2023-05-10T04:09:38.608Z,98534.13
2023-05-10T04:12:05.384Z,98536.76
2023-05-10T04:14:32.177Z,98536.46
2023-05-10T04:16:59.018Z,98539.13
2023-05-10T04:19:25.721Z,98537.48
2023-05-10T04:21:52.355Z,98539.61
2023-05-10T04:24:18.974Z,98541.89
2023-05-10T04:26:45.640Z,98544.58
2023-05-10T04:29:12.252Z,98544.05
2023-05-10T04:31:38.997Z,98539.66
2023-05-10T04:34:06.261Z,98541.48
2023-05-10T04:36:35.026Z,98540.71
2023-05-10T04:39:01.733Z,98538.66
2023-05-10T04:41:28.754Z,98537.92
2023-05-10T04:43:55.678Z,98541.34
2023-05-10T04:46:22.308Z,98543.58
2023-05-10T04:48:49.296Z,98542.14
2023-05-10T04:51:15.867Z,98546.02
2023-05-10T04:53:46.438Z,98545.55
2023-05-10T04:56:18.090Z,98544.55
2023-05-10T04:58:44.796Z,98543.15
2023-05-10T05:01:11.775Z,98537.21
2023-05-10T05:03:38.539Z,98533.80
2023-05-10T05:06:05.555Z,98532.24
2023-05-10T05:08:32.347Z,98532.38
2023-05-10T05:10:58.946Z,98532.15
2023-05-10T05:13:25.807Z,98532.43
2023-05-10T05:15:52.699Z,98527.64
2023-05-10T05:18:19.419Z,98528.62
2023-05-10T05:20:46.128Z,98529.77
2023-05-10T05:23:12.776Z,98524.70
2023-05-10T05:25:39.824Z,98524.48
2023-05-10T05:28:06.538Z,98524.81
2023-05-10T05:30:33.155Z,98524.38
2023-05-10T05:32:59.899Z,98524.30
2023-05-10T05:35:26.521Z,98523.10
2023-05-10T05:37:53.249Z,98525.73
2023-05-10T05:40:19.870Z,98522.88
2023-05-10T05:42:46.588Z,98526.34
2023-05-10T05:45:17.582Z,98522.83
2023-05-10T05:47:44.610Z,98523.36
2023-05-10T05:50:11.322Z,98527.75
2023-05-10T05:52:37.987Z,98527.73
2023-05-10T05:55:04.808Z,98530.24
2023-05-10T05:57:31.504Z,98530.63
2023-05-10T05:59:58.186Z,98524.25
2023-05-10T06:02:24.936Z,98526.41
2023-05-10T06:04:51.666Z,98527.95
2023-05-10T06:07:18.337Z,98526.05
2023-05-10T06:09:45.204Z,98527.11
2023-05-10T06:12:12.889Z,98530.59
2023-05-10T06:14:39.536Z,98529.02
2023-05-10T06:17:06.583Z,98523.27
2023-05-10T06:19:33.406Z,98523.52
2023-05-10T06:22:00.228Z,98526.66
2023-05-10T06:24:28.608Z,98527.13
2023-05-10T06:26:55.204Z,98526.03
2023-05-10T06:29:21.736Z,98528.98
2023-05-10T06:31:49.406Z,98525.85
2023-05-10T06:34:16.216Z,98522.90
2023-05-10T06:36:43.373Z,98525.57
2023-05-10T06:39:10.200Z,98527.20
2023-05-10T06:41:36.984Z,98528.99
2023-05-10T06:44:04.206Z,98532.90
2023-05-10T06:46:31.148Z,98529.64
2023-05-10T06:48:57.987Z,98525.45
2023-05-10T06:51:24.928Z,98528.74
2023-05-10T06:53:51.690Z,98525.71
2023-05-10T06:56:18.444Z,98527.80
2023-05-10T06:58:45.250Z,98529.05
2023-05-10T07:01:12.200Z,98522.21
2023-05-10T07:03:38.979Z,98525.04
2023-05-10T07:06:06.437Z,98526.35
2023-05-10T07:08:33.230Z,98525.16
2023-05-10T07:11:08.519Z,98525.58
2023-05-10T07:13:35.776Z,98523.95
2023-05-10T07:16:03.387Z,98520.36
2023-05-10T07:18:30.736Z,98524.09
2023-05-10T07:20:58.439Z,98519.70
2023-05-10T07:23:25.257Z,98525.77
2023-05-10T07:25:55.207Z,98527.10
2023-05-10T07:28:22.015Z,98527.81
2023-05-10T07:30:49.309Z,98523.25
2023-05-10T07:33:17.114Z,98524.84
2023-05-10T07:35:44.263Z,98518.21
2023-05-10T07:38:12.326Z,98517.48
2023-05-10T07:40:40.477Z,98518.16
2023-05-10T07:43:07.561Z,98516.86
2023-05-10T07:45:34.713Z,98517.54
2023-05-10T07:48:01.666Z,98518.03
2023-05-10T07:50:28.875Z,98516.09
2023-05-10T07:52:55.586Z,98516.58
2023-05-10T07:55:25.125Z,98512.64
2023-05-10T07:57:51.992Z,98514.68
2023-05-10T08:00:19.748Z,98513.39
2023-05-10T08:02:47.803Z,98510.74
2023-05-10T08:05:14.707Z,98511.44
2023-05-10T08:07:41.784Z,98509.25
2023-05-10T08:10:08.988Z,98508.67
2023-05-10T08:12:35.807Z,98508.55
2023-05-10T08:15:02.576Z,98503.23
2023-05-10T08:17:29.429Z,98507.23
2023-05-10T08:19:56.219Z,98504.91
2023-05-10T08:22:23.172Z,98507.32
2023-05-10T08:24:49.980Z,98500.70
2023-05-10T08:27:16.590Z,98503.33
2023-05-10T08:29:50.058Z,98494.04
2023-05-10T08:32:17.833Z,98493.04
2023-05-10T08:34:44.715Z,98496.34
2023-05-10T08:37:14.460Z,98496.64
2023-05-10T08:39:41.960Z,98499.00
2023-05-10T08:42:09.479Z,98502.32
2023-05-10T08:44:37.764Z,98505.17
2023-05-10T08:47:06.786Z,98500.77
2023-05-10T08:49:34.160Z,98501.83
2023-05-10T08:52:04.320Z,98507.02
2023-05-10T08:54:32.562Z,98506.79
2023-05-10T08:56:59.714Z,98505.62
2023-05-10T08:59:26.607Z,98500.61
2023-05-10T09:01:54.907Z,98504.42
2023-05-10T09:04:22.271Z,98503.95
2023-05-10T09:06:49.724Z,98505.16
2023-05-10T09:09:17.466Z,98502.16
2023-05-10T09:11:44.951Z,98504.70
2023-05-10T09:14:13.749Z,98511.60
2023-05-10T09:16:41.483Z,98504.35
2023-05-10T09:19:09.861Z,98503.89
2023-05-10T09:21:39.440Z,98508.17
2023-05-10T09:24:09.707Z,98501.84
2023-05-10T09:26:37.202Z,98501.35
2023-05-10T09:29:04.684Z,98501.09
2023-05-10T09:31:45.861Z,98502.73
2023-05-10T09:34:12.939Z,98498.50
2023-05-10T09:36:51.315Z,98503.90
2023-05-10T09:39:19.049Z,98497.83
2023-05-10T09:41:45.661Z,98498.86
2023-05-10T09:44:12.400Z,98501.70
2023-05-10T09:46:39.432Z,98498.98
2023-05-10T09:49:06.816Z,98501.02
2023-05-10T09:51:36.107Z,98490.86
2023-05-10T09:54:10.566Z,98494.08
2023-05-10T09:56:38.761Z,98490.15
2023-05-10T09:59:05.983Z,98487.27
2023-05-10T10:01:33.005Z,98491.77
2023-05-10T10:03:59.937Z,98487.27
2023-05-10T10:06:30.436Z,98488.17
2023-05-10T10:08:57.936Z,98490.96
2023-05-10T10:11:25.030Z,98478.23
2023-05-10T10:13:51.998Z,98476.59
2023-05-10T10:16:18.688Z,98477.75
2023-05-10T10:18:45.634Z,98476.64
2023-05-10T10:21:14.638Z,98471.48
2023-05-10T10:23:41.423Z,98470.30
2023-05-10T10:26:08.629Z,98461.98
2023-05-10T10:28:49.724Z,98463.35
2023-05-10T10:31:40.447Z,98463.44
2023-05-10T10:34:08.388Z,98461.31
2023-05-10T10:36:41.911Z,98462.56
2023-05-10T10:39:11.021Z,98461.15
2023-05-10T10:41:38.857Z,98458.40
2023-05-10T10:44:19.713Z,98463.19
2023-05-10T10:47:00.370Z,98454.86
2023-05-10T10:49:27.982Z,98451.30
2023-05-10T10:52:08.616Z,98454.81
2023-05-10T10:54:37.266Z,98452.91
2023-05-10T10:57:14.790Z,98447.64
2023-05-10T10:59:48.219Z,98445.38
2023-05-10T11:02:30.676Z,98444.98
2023-05-10T11:04:58.135Z,98441.11
2023-05-10T11:07:25.791Z,98432.80
2023-05-10T11:09:53.034Z,98439.81
2023-05-10T11:12:19.728Z,98433.19
2023-05-10T11:14:50.936Z,98435.92
2023-05-10T11:17:25.146Z,98440.90
2023-05-10T11:20:05.848Z,98432.67
2023-05-10T11:22:50.848Z,98430.08
2023-05-10T11:25:17.611Z,98423.32
2023-05-10T11:27:44.506Z,98429.63
2023-05-10T11:30:12.213Z,98429.42
2023-05-10T11:32:40.137Z,98425.80
2023-05-10T11:35:10.821Z,98420.94
2023-05-10T11:37:37.626Z,98428.48
2023-05-10T11:40:04.724Z,98430.58
2023-05-10T11:42:31.684Z,98419.13
2023-05-10T11:44:58.522Z,98415.38
2023-05-10T11:47:25.517Z,98407.61
2023-05-10T11:49:52.917Z,98414.89
2023-05-10T11:52:20.345Z,98416.52
2023-05-10T11:54:52.201Z,98404.88
2023-05-10T11:57:26.833Z,98404.52
2023-05-10T11:59:57.955Z,98402.76
2023-05-10T12:02:25.240Z,98410.95
2023-05-10T12:04:52.526Z,98401.13
2023-05-10T12:07:19.474Z,98397.79
2023-05-10T12:10:03.471Z,98400.08
2023-05-10T12:12:40.570Z,98402.79
2023-05-10T12:15:11.660Z,98403.30
2023-05-10T12:17:39.896Z,98404.28
2023-05-10T12:20:21.494Z,98403.66
2023-05-10T12:22:52.798Z,98406.35
2023-05-10T12:25:20.391Z,98403.83
2023-05-10T12:27:53.224Z,98408.86
2023-05-10T12:33:08.365Z,98393.45
2023-05-10T12:35:44.876Z,98394.61
2023-05-10T12:38:26.295Z,98390.81
2023-05-10T12:40:53.044Z,98388.61
2023-05-10T12:43:19.768Z,98390.15
2023-05-10T12:45:49.214Z,98388.70
2023-05-10T12:48:16.331Z,98380.99
2023-05-10T12:50:43.022Z,98380.30
2023-05-10T12:53:09.821Z,98371.72
2023-05-10T12:55:36.523Z,98372.02
2023-05-10T12:58:03.194Z,98374.95
2023-05-10T13:00:29.912Z,98368.10
2023-05-10T13:02:56.557Z,98371.36
2023-05-10T13:05:23.198Z,98373.61
2023-05-10T13:07:50.025Z,98363.23
2023-05-10T13:10:17.369Z,98357.94
2023-05-10T13:12:44.453Z,98367.50
2023-05-10T13:17:52.263Z,98358.50
2023-05-10T13:20:19.039Z,98352.42
2023-05-10T13:22:46.078Z,98354.07
2023-05-10T13:25:13.195Z,98353.15
2023-05-10T13:27:43.075Z,98350.27
2023-05-10T13:30:10.124Z,98352.99
2023-05-10T13:32:37.116Z,98350.13
2023-05-10T13:35:07.483Z,98352.84
2023-05-10T13:37:36.784Z,98342.96
2023-05-10T13:40:03.810Z,98345.98
2023-05-10T13:42:30.461Z,98342.24
2023-05-10T13:44:56.948Z,98331.73
2023-05-10T13:47:23.556Z,98337.80
2023-05-10T13:49:50.070Z,98328.16
2023-05-10T13:52:16.821Z,98321.34
2023-05-10T13:54:43.598Z,98322.61
2023-05-10T13:57:10.189Z,98319.15
2023-05-10T13:59:36.803Z,98319.57
2023-05-10T14:02:17.022Z,98318.27
2023-05-10T14:04:43.730Z,98309.10
2023-05-10T14:07:10.469Z,98318.46
2023-05-10T14:09:37.296Z,98315.57
2023-05-10T14:12:04.552Z,98317.95
2023-05-10T14:17:12.528Z,98307.14
2023-05-10T14:19:40.120Z,98312.60
2023-05-10T14:22:10.049Z,98310.52
2023-05-10T14:24:37.440Z,98305.08
2023-05-10T14:27:04.108Z,98303.19
2023-05-10T14:29:30.692Z,98304.52
2023-05-10T14:31:57.836Z,98296.72
2023-05-10T14:34:24.592Z,98300.83
2023-05-10T14:36:51.449Z,98304.16
2023-05-10T14:39:18.065Z,98306.96
2023-05-10T14:44:26.118Z,98304.29
2023-05-10T14:46:52.954Z,98309.33
2023-05-10T14:49:19.467Z,98297.25
2023-05-10T14:51:46.785Z,98302.30
2023-05-10T14:54:13.327Z,98306.26
2023-05-10T14:59:21.589Z,98303.52
2023-05-10T15:01:48.358Z,98303.30
2023-05-10T15:04:17.438Z,98307.79
2023-05-10T15:06:44.483Z,98299.77
2023-05-10T15:09:11.057Z,98296.35
2023-05-10T15:11:37.634Z,98297.58
2023-05-10T15:14:04.239Z,98293.38
2023-05-10T15:16:32.286Z,98294.05
2023-05-10T15:19:01.146Z,98291.73
2023-05-10T15:21:29.033Z,98295.61
2023-05-10T15:23:55.528Z,98290.80
2023-05-10T15:26:23.161Z,98288.52
2023-05-10T15:28:49.959Z,98284.55
2023-05-10T15:31:16.580Z,98288.34
2023-05-10T15:33:43.139Z,98288.79
2023-05-10T15:36:09.841Z,98286.96
2023-05-10T15:38:37.780Z,98284.30
2023-05-10T15:41:04.442Z,98285.92
2023-05-10T15:43:31.072Z,98288.45
2023-05-10T15:45:57.653Z,98291.08
2023-05-10T15:48:24.340Z,98287.64
2023-05-10T15:50:51.072Z,98290.25
2023-05-10T15:53:17.770Z,98290.85
2023-05-10T15:55:44.402Z,98297.05
2023-05-10T15:58:11.548Z,98293.59
2023-05-10T16:00:39.231Z,98289.20
2023-05-10T16:03:06.895Z,98294.62
2023-05-10T16:05:33.847Z,98299.64
2023-05-10T16:08:03.184Z,98293.86
2023-05-10T16:10:32.114Z,98293.21
2023-05-10T16:12:58.721Z,98296.60
2023-05-10T16:15:25.352Z,98290.16
2023-05-10T16:17:52.090Z,98291.00
2023-05-10T16:20:18.757Z,98292.83
2023-05-10T16:22:45.355Z,98295.52
2023-05-10T16:25:13.695Z,98296.89
2023-05-10T16:27:40.470Z,98302.36
2023-05-10T16:30:07.769Z,98301.71
2023-05-10T16:32:34.358Z,98297.71
2023-05-10T16:35:01.093Z,98306.43
2023-05-10T16:37:28.186Z,98303.98
2023-05-10T16:39:54.837Z,98303.38
2023-05-10T16:42:21.882Z,98303.34
2023-05-10T16:44:48.491Z,98306.61
2023-05-10T16:47:15.070Z,98304.48
2023-05-10T16:49:41.717Z,98303.96
2023-05-10T16:52:08.482Z,98306.63
2023-05-10T16:54:35.134Z,98313.17
2023-05-10T16:57:02.416Z,98314.83
2023-05-10T16:59:29.029Z,98311.73
2023-05-10T17:01:55.877Z,98312.44
2023-05-10T17:04:22.611Z,98309.05
2023-05-10T17:06:49.206Z,98316.20
2023-05-10T17:09:15.962Z,98315.74
2023-05-10T17:11:42.727Z,98311.86
2023-05-10T17:14:10.267Z,98316.29
2023-05-10T17:16:36.990Z,98320.98
2023-05-10T17:19:03.731Z,98316.54
2023-05-10T17:21:30.344Z,98320.54
2023-05-10T17:23:57.115Z,98324.33
2023-05-10T17:26:23.852Z,98325.08
2023-05-10T17:28:50.585Z,98328.38
2023-05-10T17:31:17.288Z,98327.04
2023-05-10T17:33:43.933Z,98329.11
2023-05-10T17:36:11.136Z,98332.02
2023-05-10T17:38:37.938Z,98330.28
2023-05-10T17:41:04.585Z,98331.23
2023-05-10T17:43:31.240Z,98332.79
2023-05-10T17:45:57.993Z,98335.47
2023-05-10T17:48:24.624Z,98336.11
2023-05-10T17:50:51.560Z,98340.84
2023-05-10T17:53:18.531Z,98347.35
2023-05-10T17:55:45.315Z,98348.71
2023-05-10T17:58:12.421Z,98350.94
2023-05-10T18:00:39.113Z,98350.73
2023-05-10T18:03:06.246Z,98358.10
2023-05-10T18:05:37.600Z,98356.02
2023-05-10T18:08:05.421Z,98362.18
2023-05-10T18:10:32.233Z,98362.70
2023-05-10T18:12:59.283Z,98369.33
2023-05-10T18:15:26.698Z,98366.42
2023-05-10T18:17:53.477Z,98369.30
2023-05-10T18:20:20.152Z,98372.14
2023-05-10T18:22:46.824Z,98377.69
2023-05-10T18:25:13.523Z,98380.48
2023-05-10T18:27:40.165Z,98383.39
2023-05-10T18:30:09.476Z,98385.15
2023-05-10T18:32:36.239Z,98389.91
2023-05-10T18:35:04.177Z,98394.25
2023-05-10T18:37:30.847Z,98394.86
2023-05-10T18:39:57.928Z,98395.61
2023-05-10T18:42:24.812Z,98401.94
2023-05-10T18:44:51.408Z,98395.41
2023-05-10T18:47:18.137Z,98401.39
2023-05-10T18:49:46.395Z,98400.33
2023-05-10T18:52:13.170Z,98403.41
2023-05-10T18:54:39.859Z,98402.63
2023-05-10T18:57:06.431Z,98412.08
2023-05-10T18:59:33.698Z,98414.92
2023-05-10T19:02:00.465Z,98418.58
2023-05-10T19:04:27.202Z,98422.75
2023-05-10T19:06:53.996Z,98426.95
2023-05-10T19:09:21.245Z,98425.59
2023-05-10T19:11:48.682Z,98429.79
2023-05-10T19:14:15.864Z,98432.58
2023-05-10T19:16:43.717Z,98430.65
2023-05-10T19:19:10.699Z,98431.77
2023-05-10T19:21:37.478Z,98428.16
2023-05-10T19:24:04.194Z,98428.67
2023-05-10T19:26:30.993Z,98430.17
2023-05-10T19:28:58.040Z,98430.38
2023-05-10T19:31:24.968Z,98433.34
2023-05-10T19:33:52.128Z,98435.59
2023-05-10T19:36:18.825Z,98435.17
2023-05-10T19:38:45.572Z,98434.17
2023-05-10T19:41:13.242Z,98435.23
2023-05-10T19:43:39.909Z,98437.66
2023-05-10T19:46:06.584Z,98437.61
2023-05-10T19:48:33.457Z,98437.16
2023-05-10T19:51:01.347Z,98438.73
2023-05-10T19:53:28.284Z,98437.17
2023-05-10T19:55:55.411Z,98441.45
2023-05-10T19:58:22.403Z,98439.74
2023-05-10T20:00:49.318Z,98441.02
2023-05-10T20:03:16.636Z,98437.67
2023-05-10T20:05:43.232Z,98441.89
2023-05-10T20:08:10.031Z,98439.14
2023-05-10T20:10:36.809Z,98440.00
2023-05-10T20:13:03.642Z,98441.80
2023-05-10T20:15:30.729Z,98441.48
2023-05-10T20:17:57.594Z,98445.15
2023-05-10T20:20:24.298Z,98446.08
2023-05-10T20:22:51.262Z,98447.60
2023-05-10T20:25:18.566Z,98443.63
2023-05-10T20:27:45.557Z,98444.48
2023-05-10T20:30:12.798Z,98443.55
2023-05-10T20:32:39.881Z,98445.27
2023-05-10T20:35:07.523Z,98449.70
2023-05-10T20:37:34.563Z,98444.04
2023-05-10T20:40:01.392Z,98446.18
2023-05-10T20:42:28.670Z,98448.05
2023-05-10T20:44:55.516Z,98449.18
2023-05-10T20:47:23.745Z,98448.38
2023-05-10T20:49:50.599Z,98442.67
2023-05-10T20:52:17.403Z,98444.49
2023-05-10T20:54:44.034Z,98445.11
2023-05-10T20:57:13.026Z,98444.41
2023-05-10T20:59:39.604Z,98448.44
2023-05-10T21:02:06.317Z,98444.30
2023-05-10T21:04:33.220Z,98441.60
2023-05-10T21:07:00.037Z,98444.72
2023-05-10T21:09:26.837Z,98441.77
2023-05-10T21:11:53.849Z,98439.09
2023-05-10T21:14:20.897Z,98444.14
2023-05-10T21:16:47.565Z,98442.23
2023-05-10T21:19:14.354Z,98442.72
2023-05-10T21:21:41.708Z,98438.85
2023-05-10T21:24:08.501Z,98437.16
2023-05-10T21:26:35.254Z,98439.55
2023-05-10T21:29:01.936Z,98439.42
2023-05-10T21:31:28.852Z,98434.90
2023-05-10T21:33:55.698Z,98434.37
2023-05-10T21:36:22.466Z,98436.45
2023-05-10T21:38:50.670Z,98440.64
2023-05-10T21:41:17.731Z,98444.46
2023-05-10T21:43:44.375Z,98451.47
2023-05-10T21:46:13.077Z,98452.63
2023-05-10T21:48:40.041Z,98456.55
2023-05-10T21:51:06.890Z,98453.19
2023-05-10T21:53:33.602Z,98451.61
2023-05-10T21:56:00.190Z,98454.59
2023-05-10T21:58:28.318Z,98452.52
2023-05-10T22:00:54.978Z,98454.14
2023-05-10T22:03:21.942Z,98453.38
2023-05-10T22:05:48.630Z,98454.98
2023-05-10T22:08:15.262Z,98460.87
2023-05-10T22:10:41.956Z,98458.61
2023-05-10T22:13:08.694Z,98461.29
2023-05-10T22:15:36.700Z,98462.96
2023-05-10T22:18:03.437Z,98462.80
2023-05-10T22:20:30.101Z,98468.67
2023-05-10T22:22:56.833Z,98469.30
2023-05-10T22:25:23.529Z,98475.80
2023-05-10T22:27:50.219Z,98476.59
2023-05-10T22:30:17.157Z,98473.92
2023-05-10T22:32:44.718Z,98477.48
2023-05-10T22:35:11.648Z,98479.05
2023-05-10T22:37:38.226Z,98475.70
2023-05-10T22:40:05.337Z,98472.27
2023-05-10T22:42:32.273Z,98472.35
2023-05-10T22:44:58.971Z,98474.23
2023-05-10T22:47:25.743Z,98475.58
2023-05-10T22:49:52.476Z,98475.14
2023-05-10T22:52:19.157Z,98471.08
2023-05-10T22:54:45.832Z,98477.11
2023-05-10T22:57:12.727Z,98476.80
2023-05-10T22:59:39.325Z,98475.98
2023-05-10T23:02:06.154Z,98479.77
2023-05-10T23:04:32.974Z,98480.23
2023-05-10T23:06:59.589Z,98480.04
2023-05-10T23:09:26.247Z,98481.62
2023-05-10T23:11:52.794Z,98484.20
2023-05-10T23:14:19.426Z,98485.16
2023-05-10T23:16:46.980Z,98483.55
2023-05-10T23:19:13.694Z,98486.23
2023-05-10T23:21:40.939Z,98490.25
2023-05-10T23:24:08.783Z,98490.70
2023-05-10T23:26:36.347Z,98491.42
2023-05-10T23:29:03.057Z,98492.41
2023-05-10T23:31:30.245Z,98487.52
2023-05-10T23:33:56.813Z,98490.35
2023-05-10T23:36:23.477Z,98489.91
2023-05-10T23:38:50.044Z,98492.95
2023-05-10T23:41:16.641Z,98495.66
2023-05-10T23:43:43.676Z,98497.88
2023-05-10T23:46:10.753Z,98502.21
2023-05-10T23:48:37.416Z,98500.76
2023-05-10T23:51:04.248Z,98498.87
2023-05-10T23:53:30.837Z,98497.84
2023-05-10T23:55:57.511Z,98498.64
2023-05-10T23:58:24.260Z,98499.74
